sensor_id;sensor_type;location;lat;lon;timestamp;P1;durP1;ratioP1;P2;durP2;ratioP2
24631;SDS011;59977;48.782;9.190;2023-08-17T00:01:51;10.02;;;6.78;;
24631;SDS011;59977;48.782;9.190;2023-08-17T00:04:17;13.82;;;6.57;;
24631;SDS011;59977;48.782;9.190;2023-08-17T00:06:42;12.88;;;6.60;;
24631;SDS011;59977;48.782;9.190;2023-08-17T00:09:08;9.50;;;7.05;;
24631;SDS011;59977;48.782;9.190;2023-08-17T00:11:35;10.73;;;6.97;;
24631;SDS011;59977;48.782;9.190;2023-08-17T00:14:01;13.18;;;7.13;;
24631;SDS011;59977;48.782;9.190;2023-08-17T00:16:27;10.55;;;6.88;;
24631;SDS011;59977;48.782;9.190;2023-08-17T00:18:53;12.13;;;6.57;;
24631;SDS011;59977;48.782;9.190;2023-08-17T00:21:19;15.27;;;6.40;;
24631;SDS011;59977;48.782;9.190;2023-08-17T00:23:45;11.10;;;6.22;;
24631;SDS011;59977;48.782;9.190;2023-08-17T00:26:11;10.43;;;6.25;;
24631;SDS011;59977;48.782;9.190;2023-08-17T00:28:37;13.63;;;6.45;;
24631;SDS011;59977;48.782;9.190;2023-08-17T00:31:03;17.95;;;6.65;;
24631;SDS011;59977;48.782;9.190;2023-08-17T00:33:29;11.95;;;6.90;;
24631;SDS011;59977;48.782;9.190;2023-08-17T00:35:55;12.98;;;6.97;;
24631;SDS011;59977;48.782;9.190;2023-08-17T00:38:21;14.75;;;6.40;;
24631;SDS011;59977;48.782;9.190;2023-08-17T00:40:47;8.95;;;5.63;;
24631;SDS011;59977;48.782;9.190;2023-08-17T00:43:13;12.45;;;6.28;;
24631;SDS011;59977;48.782;9.190;2023-08-17T00:45:39;9.23;;;5.25;;
24631;SDS011;59977;48.782;9.190;2023-08-17T00:48:05;13.95;;;6.20;;
24631;SDS011;59977;48.782;9.190;2023-08-17T00:50:32;9.48;;;5.88;;
24631;SDS011;59977;48.782;9.190;2023-08-17T00:52:59;8.32;;;6.10;;
24631;SDS011;59977;48.782;9.190;2023-08-17T00:55:26;12.60;;;5.20;;
24631;SDS011;59977;48.782;9.190;2023-08-17T00:57:52;8.10;;;4.22;;
24631;SDS011;59977;48.782;9.190;2023-08-17T01:00:20;13.93;;;4.93;;
24631;SDS011;59977;48.782;9.190;2023-08-17T01:02:47;14.38;;;5.40;;
24631;SDS011;59977;48.782;9.190;2023-08-17T01:05:13;10.27;;;4.70;;
24631;SDS011;59977;48.782;9.190;2023-08-17T01:07:39;16.35;;;4.85;;
24631;SDS011;59977;48.782;9.190;2023-08-17T01:10:05;11.73;;;5.40;;
24631;SDS011;59977;48.782;9.190;2023-08-17T01:12:35;11.13;;;5.05;;
24631;SDS011;59977;48.782;9.190;2023-08-17T01:15:18;9.27;;;5.20;;
24631;SDS011;59977;48.782;9.190;2023-08-17T01:18:04;10.15;;;5.72;;
24631;SDS011;59977;48.782;9.190;2023-08-17T01:20:37;10.33;;;5.73;;
24631;SDS011;59977;48.782;9.190;2023-08-17T01:23:06;11.80;;;7.30;;
24631;SDS011;59977;48.782;9.190;2023-08-17T01:25:32;16.80;;;7.82;;
24631;SDS011;59977;48.782;9.190;2023-08-17T01:28:04;14.88;;;7.43;;
24631;SDS011;59977;48.782;9.190;2023-08-17T01:30:32;11.82;;;5.97;;
24631;SDS011;59977;48.782;9.190;2023-08-17T01:33:07;8.27;;;4.93;;
24631;SDS011;59977;48.782;9.190;2023-08-17T01:38:09;12.38;;;5.80;;
24631;SDS011;59977;48.782;9.190;2023-08-17T01:40:46;13.23;;;7.18;;
24631;SDS011;59977;48.782;9.190;2023-08-17T01:43:14;12.18;;;8.55;;
24631;SDS011;59977;48.782;9.190;2023-08-17T01:45:41;13.88;;;8.88;;
24631;SDS011;59977;48.782;9.190;2023-08-17T01:48:07;14.32;;;9.88;;
24631;SDS011;59977;48.782;9.190;2023-08-17T01:50:33;15.93;;;9.48;;
24631;SDS011;59977;48.782;9.190;2023-08-17T01:52:59;19.45;;;9.27;;
24631;SDS011;59977;48.782;9.190;2023-08-17T01:55:25;11.60;;;8.35;;
24631;SDS011;59977;48.782;9.190;2023-08-17T01:57:52;16.63;;;8.85;;
24631;SDS011;59977;48.782;9.190;2023-08-17T02:00:18;15.38;;;9.48;;
24631;SDS011;59977;48.782;9.190;2023-08-17T02:02:44;19.73;;;9.52;;
24631;SDS011;59977;48.782;9.190;2023-08-17T02:05:10;17.48;;;9.98;;
24631;SDS011;59977;48.782;9.190;2023-08-17T02:07:36;15.65;;;9.88;;
24631;SDS011;59977;48.782;9.190;2023-08-17T02:10:02;14.95;;;9.10;;
24631;SDS011;59977;48.782;9.190;2023-08-17T02:12:28;14.63;;;8.65;;
24631;SDS011;59977;48.782;9.190;2023-08-17T02:14:54;15.50;;;7.90;;
24631;SDS011;59977;48.782;9.190;2023-08-17T02:17:20;7.22;;;5.80;;
24631;SDS011;59977;48.782;9.190;2023-08-17T02:19:47;10.65;;;6.28;;
24631;SDS011;59977;48.782;9.190;2023-08-17T02:22:13;9.18;;;5.38;;
24631;SDS011;59977;48.782;9.190;2023-08-17T02:24:39;9.27;;;5.75;;
24631;SDS011;59977;48.782;9.190;2023-08-17T02:27:06;11.10;;;4.57;;
24631;SDS011;59977;48.782;9.190;2023-08-17T02:29:32;8.60;;;4.53;;
24631;SDS011;59977;48.782;9.190;2023-08-17T02:31:58;15.38;;;6.30;;
24631;SDS011;59977;48.782;9.190;2023-08-17T02:34:24;19.80;;;8.20;;
24631;SDS011;59977;48.782;9.190;2023-08-17T02:36:50;15.68;;;7.03;;
24631;SDS011;59977;48.782;9.190;2023-08-17T02:39:16;11.45;;;7.18;;
24631;SDS011;59977;48.782;9.190;2023-08-17T02:41:42;18.55;;;9.00;;
24631;SDS011;59977;48.782;9.190;2023-08-17T02:44:09;16.55;;;11.13;;
24631;SDS011;59977;48.782;9.190;2023-08-17T02:46:35;19.10;;;9.10;;
24631;SDS011;59977;48.782;9.190;2023-08-17T02:49:01;11.75;;;8.45;;
24631;SDS011;59977;48.782;9.190;2023-08-17T02:51:27;19.73;;;10.65;;
24631;SDS011;59977;48.782;9.190;2023-08-17T02:53:53;22.67;;;10.57;;
24631;SDS011;59977;48.782;9.190;2023-08-17T02:56:19;20.42;;;11.15;;
24631;SDS011;59977;48.782;9.190;2023-08-17T02:58:48;16.05;;;10.98;;
24631;SDS011;59977;48.782;9.190;2023-08-17T03:01:14;16.08;;;11.27;;
24631;SDS011;59977;48.782;9.190;2023-08-17T03:03:40;17.92;;;11.60;;
24631;SDS011;59977;48.782;9.190;2023-08-17T03:06:07;20.20;;;10.15;;
24631;SDS011;59977;48.782;9.190;2023-08-17T03:08:33;18.13;;;11.23;;
24631;SDS011;59977;48.782;9.190;2023-08-17T03:10:59;18.63;;;11.18;;
24631;SDS011;59977;48.782;9.190;2023-08-17T03:13:25;16.38;;;8.52;;
24631;SDS011;59977;48.782;9.190;2023-08-17T03:15:51;14.40;;;7.60;;
24631;SDS011;59977;48.782;9.190;2023-08-17T03:18:17;17.50;;;8.20;;
24631;SDS011;59977;48.782;9.190;2023-08-17T03:20:44;13.93;;;7.50;;
24631;SDS011;59977;48.782;9.190;2023-08-17T03:23:11;13.05;;;7.75;;
24631;SDS011;59977;48.782;9.190;2023-08-17T03:25:37;15.52;;;8.48;;
24631;SDS011;59977;48.782;9.190;2023-08-17T03:28:03;15.25;;;6.97;;
24631;SDS011;59977;48.782;9.190;2023-08-17T03:30:29;10.15;;;6.70;;
24631;SDS011;59977;48.782;9.190;2023-08-17T03:32:55;16.80;;;8.43;;
24631;SDS011;59977;48.782;9.190;2023-08-17T03:35:21;13.50;;;8.13;;
24631;SDS011;59977;48.782;9.190;2023-08-17T03:37:46;11.23;;;7.50;;
24631;SDS011;59977;48.782;9.190;2023-08-17T03:40:12;15.23;;;8.50;;
24631;SDS011;59977;48.782;9.190;2023-08-17T03:42:38;16.17;;;8.10;;
24631;SDS011;59977;48.782;9.190;2023-08-17T03:45:04;14.27;;;9.35;;
24631;SDS011;59977;48.782;9.190;2023-08-17T03:47:30;10.18;;;7.15;;
24631;SDS011;59977;48.782;9.190;2023-08-17T03:49:56;15.38;;;7.88;;
24631;SDS011;59977;48.782;9.190;2023-08-17T03:52:22;16.92;;;7.82;;
24631;SDS011;59977;48.782;9.190;2023-08-17T03:54:48;13.98;;;9.05;;
24631;SDS011;59977;48.782;9.190;2023-08-17T03:57:13;15.20;;;9.13;;
24631;SDS011;59977;48.782;9.190;2023-08-17T03:59:39;13.05;;;8.13;;
24631;SDS011;59977;48.782;9.190;2023-08-17T04:02:05;11.10;;;7.93;;
24631;SDS011;59977;48.782;9.190;2023-08-17T04:04:31;14.48;;;7.47;;
24631;SDS011;59977;48.782;9.190;2023-08-17T04:06:57;21.52;;;9.07;;
24631;SDS011;59977;48.782;9.190;2023-08-17T04:09:23;12.40;;;8.40;;
24631;SDS011;59977;48.782;9.190;2023-08-17T04:11:49;13.95;;;9.38;;
24631;SDS011;59977;48.782;9.190;2023-08-17T04:14:15;11.18;;;8.80;;
24631;SDS011;59977;48.782;9.190;2023-08-17T04:16:41;14.40;;;9.20;;
24631;SDS011;59977;48.782;9.190;2023-08-17T04:19:07;11.38;;;9.30;;
24631;SDS011;59977;48.782;9.190;2023-08-17T04:21:33;17.98;;;9.32;;
24631;SDS011;59977;48.782;9.190;2023-08-17T04:23:59;17.63;;;9.85;;
24631;SDS011;59977;48.782;9.190;2023-08-17T04:26:25;22.55;;;10.52;;
24631;SDS011;59977;48.782;9.190;2023-08-17T04:28:51;16.40;;;8.73;;
24631;SDS011;59977;48.782;9.190;2023-08-17T04:31:17;17.20;;;8.48;;
24631;SDS011;59977;48.782;9.190;2023-08-17T04:33:43;16.58;;;10.30;;
24631;SDS011;59977;48.782;9.190;2023-08-17T04:36:09;14.82;;;9.68;;
24631;SDS011;59977;48.782;9.190;2023-08-17T04:38:34;19.25;;;8.73;;
24631;SDS011;59977;48.782;9.190;2023-08-17T04:41:00;15.93;;;11.20;;
24631;SDS011;59977;48.782;9.190;2023-08-17T04:43:26;18.95;;;11.40;;
24631;SDS011;59977;48.782;9.190;2023-08-17T04:45:52;21.73;;;11.88;;
24631;SDS011;59977;48.782;9.190;2023-08-17T04:48:18;21.98;;;12.50;;
24631;SDS011;59977;48.782;9.190;2023-08-17T04:50:44;18.00;;;12.52;;
24631;SDS011;59977;48.782;9.190;2023-08-17T04:53:10;19.88;;;12.80;;
24631;SDS011;59977;48.782;9.190;2023-08-17T04:55:36;21.65;;;12.52;;
24631;SDS011;59977;48.782;9.190;2023-08-17T04:58:02;17.67;;;12.18;;
24631;SDS011;59977;48.782;9.190;2023-08-17T05:00:28;19.17;;;11.88;;
24631;SDS011;59977;48.782;9.190;2023-08-17T05:02:55;16.23;;;11.77;;
24631;SDS011;59977;48.782;9.190;2023-08-17T05:05:21;18.73;;;12.68;;
24631;SDS011;59977;48.782;9.190;2023-08-17T05:07:48;18.95;;;12.10;;
24631;SDS011;59977;48.782;9.190;2023-08-17T05:10:14;20.55;;;12.63;;
24631;SDS011;59977;48.782;9.190;2023-08-17T05:12:39;18.90;;;11.45;;
24631;SDS011;59977;48.782;9.190;2023-08-17T05:15:06;18.67;;;12.05;;
24631;SDS011;59977;48.782;9.190;2023-08-17T05:17:31;20.98;;;11.77;;
24631;SDS011;59977;48.782;9.190;2023-08-17T05:19:57;16.65;;;11.75;;
24631;SDS011;59977;48.782;9.190;2023-08-17T05:22:23;17.45;;;12.10;;
24631;SDS011;59977;48.782;9.190;2023-08-17T05:24:49;25.45;;;12.05;;
24631;SDS011;59977;48.782;9.190;2023-08-17T05:27:15;19.55;;;11.50;;
24631;SDS011;59977;48.782;9.190;2023-08-17T05:29:41;24.88;;;11.45;;
24631;SDS011;59977;48.782;9.190;2023-08-17T05:32:07;25.98;;;11.45;;
24631;SDS011;59977;48.782;9.190;2023-08-17T05:34:34;19.60;;;11.93;;
24631;SDS011;59977;48.782;9.190;2023-08-17T05:37:00;16.67;;;10.82;;
24631;SDS011;59977;48.782;9.190;2023-08-17T05:39:26;16.48;;;11.13;;
24631;SDS011;59977;48.782;9.190;2023-08-17T05:41:51;20.63;;;11.23;;
24631;SDS011;59977;48.782;9.190;2023-08-17T05:44:17;21.67;;;11.18;;
24631;SDS011;59977;48.782;9.190;2023-08-17T05:46:43;22.88;;;12.52;;
24631;SDS011;59977;48.782;9.190;2023-08-17T05:49:11;18.88;;;12.13;;
24631;SDS011;59977;48.782;9.190;2023-08-17T05:51:36;24.55;;;13.55;;
24631;SDS011;59977;48.782;9.190;2023-08-17T05:54:03;18.55;;;12.80;;
24631;SDS011;59977;48.782;9.190;2023-08-17T05:56:28;20.30;;;12.13;;
24631;SDS011;59977;48.782;9.190;2023-08-17T05:58:54;18.88;;;11.75;;
24631;SDS011;59977;48.782;9.190;2023-08-17T06:01:20;21.20;;;12.30;;
24631;SDS011;59977;48.782;9.190;2023-08-17T06:03:46;21.08;;;12.70;;
24631;SDS011;59977;48.782;9.190;2023-08-17T06:06:12;15.95;;;11.75;;
24631;SDS011;59977;48.782;9.190;2023-08-17T06:08:38;15.98;;;11.20;;
24631;SDS011;59977;48.782;9.190;2023-08-17T06:11:04;21.75;;;12.07;;
24631;SDS011;59977;48.782;9.190;2023-08-17T06:13:30;19.50;;;12.48;;
24631;SDS011;59977;48.782;9.190;2023-08-17T06:15:56;26.30;;;12.82;;
24631;SDS011;59977;48.782;9.190;2023-08-17T06:18:22;18.95;;;11.40;;
24631;SDS011;59977;48.782;9.190;2023-08-17T06:20:48;20.40;;;12.20;;
24631;SDS011;59977;48.782;9.190;2023-08-17T06:23:18;17.00;;;11.02;;
24631;SDS011;59977;48.782;9.190;2023-08-17T06:25:44;20.35;;;10.60;;
24631;SDS011;59977;48.782;9.190;2023-08-17T06:28:10;19.85;;;12.00;;
24631;SDS011;59977;48.782;9.190;2023-08-17T06:30:36;17.30;;;10.93;;
24631;SDS011;59977;48.782;9.190;2023-08-17T06:33:02;17.00;;;10.90;;
24631;SDS011;59977;48.782;9.190;2023-08-17T06:35:29;16.02;;;10.45;;
24631;SDS011;59977;48.782;9.190;2023-08-17T06:37:56;27.50;;;11.32;;
24631;SDS011;59977;48.782;9.190;2023-08-17T06:40:23;18.70;;;10.27;;
24631;SDS011;59977;48.782;9.190;2023-08-17T06:42:49;14.48;;;10.70;;
24631;SDS011;59977;48.782;9.190;2023-08-17T06:45:15;24.70;;;10.77;;
24631;SDS011;59977;48.782;9.190;2023-08-17T06:47:44;14.77;;;10.68;;
24631;SDS011;59977;48.782;9.190;2023-08-17T06:50:10;18.35;;;11.63;;
24631;SDS011;59977;48.782;9.190;2023-08-17T06:52:36;18.92;;;11.57;;
24631;SDS011;59977;48.782;9.190;2023-08-17T06:55:04;23.35;;;11.98;;
24631;SDS011;59977;48.782;9.190;2023-08-17T06:57:30;21.70;;;11.70;;
24631;SDS011;59977;48.782;9.190;2023-08-17T06:59:56;19.67;;;11.57;;
24631;SDS011;59977;48.782;9.190;2023-08-17T07:02:22;22.30;;;11.73;;
24631;SDS011;59977;48.782;9.190;2023-08-17T07:04:48;17.52;;;11.60;;
24631;SDS011;59977;48.782;9.190;2023-08-17T07:07:14;16.60;;;10.85;;
24631;SDS011;59977;48.782;9.190;2023-08-17T07:09:40;15.98;;;11.23;;
24631;SDS011;59977;48.782;9.190;2023-08-17T07:12:06;18.42;;;11.90;;
24631;SDS011;59977;48.782;9.190;2023-08-17T07:14:32;19.50;;;11.18;;
24631;SDS011;59977;48.782;9.190;2023-08-17T07:17:02;15.82;;;10.20;;
24631;SDS011;59977;48.782;9.190;2023-08-17T07:19:28;16.35;;;11.38;;
24631;SDS011;59977;48.782;9.190;2023-08-17T07:21:54;13.80;;;10.25;;
24631;SDS011;59977;48.782;9.190;2023-08-17T07:24:20;15.75;;;10.70;;
24631;SDS011;59977;48.782;9.190;2023-08-17T07:26:46;18.10;;;10.55;;
24631;SDS011;59977;48.782;9.190;2023-08-17T07:29:12;18.60;;;8.93;;
24631;SDS011;59977;48.782;9.190;2023-08-17T07:31:38;16.73;;;8.82;;
24631;SDS011;59977;48.782;9.190;2023-08-17T07:34:05;15.00;;;8.90;;
24631;SDS011;59977;48.782;9.190;2023-08-17T07:36:31;19.30;;;8.63;;
24631;SDS011;59977;48.782;9.190;2023-08-17T07:38:58;18.10;;;8.73;;
24631;SDS011;59977;48.782;9.190;2023-08-17T07:41:24;13.32;;;8.23;;
24631;SDS011;59977;48.782;9.190;2023-08-17T07:43:50;10.98;;;7.95;;
24631;SDS011;59977;48.782;9.190;2023-08-17T07:46:16;18.92;;;9.35;;
24631;SDS011;59977;48.782;9.190;2023-08-17T07:48:42;15.57;;;8.90;;
24631;SDS011;59977;48.782;9.190;2023-08-17T07:51:07;15.38;;;8.55;;
24631;SDS011;59977;48.782;9.190;2023-08-17T07:53:33;17.85;;;8.45;;
24631;SDS011;59977;48.782;9.190;2023-08-17T07:55:59;12.25;;;8.68;;
24631;SDS011;59977;48.782;9.190;2023-08-17T07:58:25;12.23;;;8.50;;
24631;SDS011;59977;48.782;9.190;2023-08-17T08:00:51;17.65;;;8.65;;
24631;SDS011;59977;48.782;9.190;2023-08-17T08:03:17;14.85;;;8.95;;
24631;SDS011;59977;48.782;9.190;2023-08-17T08:05:43;16.50;;;8.77;;
24631;SDS011;59977;48.782;9.190;2023-08-17T08:08:09;13.60;;;8.70;;
24631;SDS011;59977;48.782;9.190;2023-08-17T08:10:35;11.90;;;8.43;;
24631;SDS011;59977;48.782;9.190;2023-08-17T08:13:01;15.23;;;9.23;;
24631;SDS011;59977;48.782;9.190;2023-08-17T08:15:28;16.80;;;9.23;;
24631;SDS011;59977;48.782;9.190;2023-08-17T08:17:53;10.35;;;6.93;;
24631;SDS011;59977;48.782;9.190;2023-08-17T08:20:20;13.50;;;8.02;;
24631;SDS011;59977;48.782;9.190;2023-08-17T08:22:46;11.93;;;7.28;;
24631;SDS011;59977;48.782;9.190;2023-08-17T08:25:12;13.15;;;9.10;;
24631;SDS011;59977;48.782;9.190;2023-08-17T08:27:38;15.43;;;8.82;;
24631;SDS011;59977;48.782;9.190;2023-08-17T08:30:04;19.50;;;9.00;;
24631;SDS011;59977;48.782;9.190;2023-08-17T08:32:31;16.58;;;9.18;;
24631;SDS011;59977;48.782;9.190;2023-08-17T08:34:57;14.88;;;9.05;;
24631;SDS011;59977;48.782;9.190;2023-08-17T08:37:23;17.95;;;9.93;;
24631;SDS011;59977;48.782;9.190;2023-08-17T08:39:49;15.05;;;10.05;;
24631;SDS011;59977;48.782;9.190;2023-08-17T08:42:16;14.38;;;8.70;;
24631;SDS011;59977;48.782;9.190;2023-08-17T08:44:42;15.38;;;10.15;;
24631;SDS011;59977;48.782;9.190;2023-08-17T08:47:08;14.10;;;8.98;;
24631;SDS011;59977;48.782;9.190;2023-08-17T08:49:35;15.45;;;9.55;;
24631;SDS011;59977;48.782;9.190;2023-08-17T08:52:07;13.43;;;9.57;;
24631;SDS011;59977;48.782;9.190;2023-08-17T08:54:34;14.43;;;9.38;;
24631;SDS011;59977;48.782;9.190;2023-08-17T08:57:03;16.65;;;10.13;;
24631;SDS011;59977;48.782;9.190;2023-08-17T09:01:59;13.40;;;9.23;;
24631;SDS011;59977;48.782;9.190;2023-08-17T09:04:25;15.18;;;9.73;;
24631;SDS011;59977;48.782;9.190;2023-08-17T09:06:51;14.98;;;9.93;;
24631;SDS011;59977;48.782;9.190;2023-08-17T09:09:17;17.35;;;9.90;;
24631;SDS011;59977;48.782;9.190;2023-08-17T09:11:44;11.43;;;8.43;;
24631;SDS011;59977;48.782;9.190;2023-08-17T09:14:09;19.60;;;9.00;;
24631;SDS011;59977;48.782;9.190;2023-08-17T09:16:35;16.35;;;8.90;;
24631;SDS011;59977;48.782;9.190;2023-08-17T09:19:01;17.85;;;9.25;;
24631;SDS011;59977;48.782;9.190;2023-08-17T09:21:30;14.43;;;8.57;;
24631;SDS011;59977;48.782;9.190;2023-08-17T09:23:56;20.77;;;8.75;;
24631;SDS011;59977;48.782;9.190;2023-08-17T09:26:22;17.63;;;8.70;;
24631;SDS011;59977;48.782;9.190;2023-08-17T09:28:49;14.60;;;8.00;;
24631;SDS011;59977;48.782;9.190;2023-08-17T09:31:15;18.40;;;10.90;;
24631;SDS011;59977;48.782;9.190;2023-08-17T09:33:41;13.75;;;8.95;;
24631;SDS011;59977;48.782;9.190;2023-08-17T09:36:09;16.65;;;8.20;;
24631;SDS011;59977;48.782;9.190;2023-08-17T09:38:36;13.27;;;9.82;;
24631;SDS011;59977;48.782;9.190;2023-08-17T09:41:03;16.08;;;9.93;;
24631;SDS011;59977;48.782;9.190;2023-08-17T09:43:30;15.15;;;9.13;;
24631;SDS011;59977;48.782;9.190;2023-08-17T09:45:58;15.13;;;9.80;;
24631;SDS011;59977;48.782;9.190;2023-08-17T09:48:26;17.20;;;9.82;;
24631;SDS011;59977;48.782;9.190;2023-08-17T09:50:53;13.30;;;9.45;;
24631;SDS011;59977;48.782;9.190;2023-08-17T09:53:21;15.15;;;9.30;;
24631;SDS011;59977;48.782;9.190;2023-08-17T09:55:47;15.02;;;9.23;;
24631;SDS011;59977;48.782;9.190;2023-08-17T09:58:13;14.90;;;10.13;;
24631;SDS011;59977;48.782;9.190;2023-08-17T10:00:45;14.93;;;8.95;;
24631;SDS011;59977;48.782;9.190;2023-08-17T10:03:15;16.63;;;9.52;;
24631;SDS011;59977;48.782;9.190;2023-08-17T10:05:42;18.00;;;10.38;;
24631;SDS011;59977;48.782;9.190;2023-08-17T10:08:09;14.63;;;9.93;;
24631;SDS011;59977;48.782;9.190;2023-08-17T10:10:37;18.05;;;10.05;;
24631;SDS011;59977;48.782;9.190;2023-08-17T10:13:11;14.13;;;9.30;;
24631;SDS011;59977;48.782;9.190;2023-08-17T10:15:45;12.60;;;8.48;;
24631;SDS011;59977;48.782;9.190;2023-08-17T10:18:37;13.80;;;9.00;;
24631;SDS011;59977;48.782;9.190;2023-08-17T10:21:09;14.82;;;8.27;;
24631;SDS011;59977;48.782;9.190;2023-08-17T10:23:36;15.68;;;8.43;;
24631;SDS011;59977;48.782;9.190;2023-08-17T10:26:03;14.07;;;7.70;;
24631;SDS011;59977;48.782;9.190;2023-08-17T10:28:32;13.73;;;7.95;;
24631;SDS011;59977;48.782;9.190;2023-08-17T10:30:59;14.65;;;8.18;;
24631;SDS011;59977;48.782;9.190;2023-08-17T10:33:25;10.70;;;7.75;;
24631;SDS011;59977;48.782;9.190;2023-08-17T10:35:52;10.55;;;7.60;;
24631;SDS011;59977;48.782;9.190;2023-08-17T10:38:19;13.30;;;7.22;;
24631;SDS011;59977;48.782;9.190;2023-08-17T10:40:45;13.82;;;7.30;;
24631;SDS011;59977;48.782;9.190;2023-08-17T10:43:32;13.05;;;8.00;;
24631;SDS011;59977;48.782;9.190;2023-08-17T10:46:14;15.07;;;8.43;;
24631;SDS011;59977;48.782;9.190;2023-08-17T10:48:43;15.57;;;7.90;;
24631;SDS011;59977;48.782;9.190;2023-08-17T10:51:09;18.75;;;8.27;;
24631;SDS011;59977;48.782;9.190;2023-08-17T10:53:38;12.88;;;8.30;;
24631;SDS011;59977;48.782;9.190;2023-08-17T10:56:11;13.43;;;8.65;;
24631;SDS011;59977;48.782;9.190;2023-08-17T10:58:38;12.18;;;7.10;;
24631;SDS011;59977;48.782;9.190;2023-08-17T11:01:04;17.10;;;7.93;;
24631;SDS011;59977;48.782;9.190;2023-08-17T11:03:30;14.13;;;7.78;;
24631;SDS011;59977;48.782;9.190;2023-08-17T11:05:56;15.52;;;8.90;;
24631;SDS011;59977;48.782;9.190;2023-08-17T11:08:33;13.02;;;7.53;;
24631;SDS011;59977;48.782;9.190;2023-08-17T11:13:35;14.93;;;7.75;;
24631;SDS011;59977;48.782;9.190;2023-08-17T11:16:01;15.55;;;8.35;;
24631;SDS011;59977;48.782;9.190;2023-08-17T11:18:28;13.15;;;8.27;;
24631;SDS011;59977;48.782;9.190;2023-08-17T11:20:53;11.55;;;7.53;;
24631;SDS011;59977;48.782;9.190;2023-08-17T11:23:20;13.10;;;7.70;;
24631;SDS011;59977;48.782;9.190;2023-08-17T11:25:47;17.40;;;9.98;;
24631;SDS011;59977;48.782;9.190;2023-08-17T11:28:13;17.08;;;7.05;;
24631;SDS011;59977;48.782;9.190;2023-08-17T11:30:39;9.15;;;5.88;;
24631;SDS011;59977;48.782;9.190;2023-08-17T11:33:07;11.73;;;6.80;;
24631;SDS011;59977;48.782;9.190;2023-08-17T11:35:33;13.68;;;7.13;;
24631;SDS011;59977;48.782;9.190;2023-08-17T11:37:59;10.30;;;6.63;;
24631;SDS011;59977;48.782;9.190;2023-08-17T11:40:26;11.93;;;6.43;;
24631;SDS011;59977;48.782;9.190;2023-08-17T11:42:52;13.02;;;6.47;;
24631;SDS011;59977;48.782;9.190;2023-08-17T11:45:18;8.63;;;6.00;;
24631;SDS011;59977;48.782;9.190;2023-08-17T11:47:46;11.30;;;6.78;;
24631;SDS011;59977;48.782;9.190;2023-08-17T11:50:12;10.07;;;7.38;;
24631;SDS011;59977;48.782;9.190;2023-08-17T11:52:38;16.52;;;6.28;;
24631;SDS011;59977;48.782;9.190;2023-08-17T11:55:04;10.95;;;6.55;;
24631;SDS011;59977;48.782;9.190;2023-08-17T11:57:31;12.20;;;6.18;;
24631;SDS011;59977;48.782;9.190;2023-08-17T11:59:58;13.88;;;7.15;;
24631;SDS011;59977;48.782;9.190;2023-08-17T12:02:24;10.50;;;5.88;;
24631;SDS011;59977;48.782;9.190;2023-08-17T12:04:51;8.00;;;4.88;;
24631;SDS011;59977;48.782;9.190;2023-08-17T12:07:18;9.70;;;5.22;;
24631;SDS011;59977;48.782;9.190;2023-08-17T12:09:45;11.80;;;5.43;;
24631;SDS011;59977;48.782;9.190;2023-08-17T12:12:11;11.43;;;5.53;;
24631;SDS011;59977;48.782;9.190;2023-08-17T12:14:41;12.80;;;5.38;;
24631;SDS011;59977;48.782;9.190;2023-08-17T12:17:10;8.30;;;4.68;;
24631;SDS011;59977;48.782;9.190;2023-08-17T12:19:42;12.88;;;5.65;;
24631;SDS011;59977;48.782;9.190;2023-08-17T12:22:08;14.85;;;6.75;;
24631;SDS011;59977;48.782;9.190;2023-08-17T12:24:34;12.98;;;6.95;;
24631;SDS011;59977;48.782;9.190;2023-08-17T12:27:02;9.70;;;6.57;;
24631;SDS011;59977;48.782;9.190;2023-08-17T12:29:28;12.95;;;8.30;;
24631;SDS011;59977;48.782;9.190;2023-08-17T12:31:54;14.82;;;7.63;;
24631;SDS011;59977;48.782;9.190;2023-08-17T12:34:22;16.48;;;7.00;;
24631;SDS011;59977;48.782;9.190;2023-08-17T12:36:48;13.70;;;7.45;;
24631;SDS011;59977;48.782;9.190;2023-08-17T12:39:14;17.58;;;8.23;;
24631;SDS011;59977;48.782;9.190;2023-08-17T12:41:40;17.40;;;7.10;;
24631;SDS011;59977;48.782;9.190;2023-08-17T12:44:08;11.20;;;7.05;;
24631;SDS011;59977;48.782;9.190;2023-08-17T12:46:37;9.68;;;6.85;;
24631;SDS011;59977;48.782;9.190;2023-08-17T12:49:02;12.18;;;6.88;;
24631;SDS011;59977;48.782;9.190;2023-08-17T12:51:28;10.85;;;6.05;;
24631;SDS011;59977;48.782;9.190;2023-08-17T12:53:54;10.90;;;6.45;;
24631;SDS011;59977;48.782;9.190;2023-08-17T12:56:20;14.52;;;6.57;;
24631;SDS011;59977;48.782;9.190;2023-08-17T12:58:46;10.77;;;5.57;;
24631;SDS011;59977;48.782;9.190;2023-08-17T13:01:12;15.15;;;6.82;;
24631;SDS011;59977;48.782;9.190;2023-08-17T13:03:39;13.88;;;6.00;;
24631;SDS011;59977;48.782;9.190;2023-08-17T13:06:04;14.27;;;5.57;;
24631;SDS011;59977;48.782;9.190;2023-08-17T13:08:30;10.35;;;5.55;;
24631;SDS011;59977;48.782;9.190;2023-08-17T13:10:56;8.88;;;5.45;;
24631;SDS011;59977;48.782;9.190;2023-08-17T13:13:22;8.93;;;5.35;;
24631;SDS011;59977;48.782;9.190;2023-08-17T13:15:48;10.73;;;4.88;;
24631;SDS011;59977;48.782;9.190;2023-08-17T13:18:14;8.38;;;5.00;;
24631;SDS011;59977;48.782;9.190;2023-08-17T13:20:40;9.90;;;4.93;;
24631;SDS011;59977;48.782;9.190;2023-08-17T13:23:06;10.45;;;4.88;;
24631;SDS011;59977;48.782;9.190;2023-08-17T13:25:32;12.90;;;5.30;;
24631;SDS011;59977;48.782;9.190;2023-08-17T13:27:58;9.98;;;4.97;;
24631;SDS011;59977;48.782;9.190;2023-08-17T13:30:24;9.85;;;5.28;;
24631;SDS011;59977;48.782;9.190;2023-08-17T13:32:50;12.32;;;5.38;;
24631;SDS011;59977;48.782;9.190;2023-08-17T13:35:16;8.57;;;5.40;;
24631;SDS011;59977;48.782;9.190;2023-08-17T13:37:45;9.68;;;5.22;;
24631;SDS011;59977;48.782;9.190;2023-08-17T13:42:43;11.70;;;5.60;;
24631;SDS011;59977;48.782;9.190;2023-08-17T13:45:09;7.30;;;5.47;;
24631;SDS011;59977;48.782;9.190;2023-08-17T13:47:35;14.98;;;6.07;;
24631;SDS011;59977;48.782;9.190;2023-08-17T13:50:01;7.80;;;5.10;;
24631;SDS011;59977;48.782;9.190;2023-08-17T13:52:28;8.93;;;5.40;;
24631;SDS011;59977;48.782;9.190;2023-08-17T13:54:54;9.77;;;5.75;;
24631;SDS011;59977;48.782;9.190;2023-08-17T13:57:20;10.10;;;6.10;;
24631;SDS011;59977;48.782;9.190;2023-08-17T13:59:46;10.93;;;6.03;;
24631;SDS011;59977;48.782;9.190;2023-08-17T14:02:12;10.30;;;5.97;;
24631;SDS011;59977;48.782;9.190;2023-08-17T14:04:38;13.05;;;5.68;;
24631;SDS011;59977;48.782;9.190;2023-08-17T14:07:04;11.15;;;6.00;;
24631;SDS011;59977;48.782;9.190;2023-08-17T14:09:30;14.10;;;6.00;;
24631;SDS011;59977;48.782;9.190;2023-08-17T14:11:56;10.70;;;6.00;;
24631;SDS011;59977;48.782;9.190;2023-08-17T14:14:22;8.65;;;5.85;;
24631;SDS011;59977;48.782;9.190;2023-08-17T14:16:48;12.35;;;5.85;;
24631;SDS011;59977;48.782;9.190;2023-08-17T14:19:14;10.48;;;6.15;;
24631;SDS011;59977;48.782;9.190;2023-08-17T14:21:40;12.30;;;6.38;;
24631;SDS011;59977;48.782;9.190;2023-08-17T14:24:06;12.52;;;6.53;;
24631;SDS011;59977;48.782;9.190;2023-08-17T14:26:33;13.45;;;6.15;;
24631;SDS011;59977;48.782;9.190;2023-08-17T14:28:59;9.68;;;6.35;;
24631;SDS011;59977;48.782;9.190;2023-08-17T14:31:25;11.15;;;5.90;;
24631;SDS011;59977;48.782;9.190;2023-08-17T14:33:51;10.15;;;6.22;;
24631;SDS011;59977;48.782;9.190;2023-08-17T14:36:17;14.38;;;5.95;;
24631;SDS011;59977;48.782;9.190;2023-08-17T14:38:43;10.13;;;5.80;;
24631;SDS011;59977;48.782;9.190;2023-08-17T14:41:09;11.63;;;6.28;;